sensor_id;sensor_type;location;lat;lon;timestamp;P1;durP1;ratioP1;P2;durP2;ratioP2
10979;SDS011;5543;51.734;8.744;2023-04-15T00:00:13;2.22;;;1.30;;
10979;SDS011;5543;51.734;8.744;2023-04-15T00:02:41;1.42;;;1.15;;
10979;SDS011;5543;51.734;8.744;2023-04-15T00:05:09;3.78;;;1.58;;
10979;SDS011;5543;51.734;8.744;2023-04-15T00:07:37;1.20;;;1.03;;
10979;SDS011;5543;51.734;8.744;2023-04-15T00:10:06;2.50;;;1.07;;
10979;SDS011;5543;51.734;8.744;2023-04-15T00:12:36;1.33;;;1.02;;
10979;SDS011;5543;51.734;8.744;2023-04-15T00:15:05;0.88;;;0.85;;
10979;SDS011;5543;51.734;8.744;2023-04-15T00:17:34;2.33;;;1.15;;
10979;SDS011;5543;51.734;8.744;2023-04-15T00:20:04;3.42;;;1.85;;
10979;SDS011;5543;51.734;8.744;2023-04-15T00:22:33;2.65;;;1.67;;
10979;SDS011;5543;51.734;8.744;2023-04-15T00:25:01;1.35;;;1.05;;
10979;SDS011;5543;51.734;8.744;2023-04-15T00:27:30;2.17;;;1.23;;
10979;SDS011;5543;51.734;8.744;2023-04-15T00:29:59;1.25;;;1.00;;
10979;SDS011;5543;51.734;8.744;2023-04-15T00:32:29;1.07;;;0.90;;
10979;SDS011;5543;51.734;8.744;2023-04-15T00:34:57;1.48;;;1.27;;
10979;SDS011;5543;51.734;8.744;2023-04-15T00:37:25;0.80;;;0.80;;
10979;SDS011;5543;51.734;8.744;2023-04-15T00:39:53;1.65;;;1.10;;
10979;SDS011;5543;51.734;8.744;2023-04-15T00:42:21;1.35;;;1.13;;
10979;SDS011;5543;51.734;8.744;2023-04-15T00:44:51;1.35;;;1.25;;
10979;SDS011;5543;51.734;8.744;2023-04-15T00:47:20;1.60;;;1.00;;
10979;SDS011;5543;51.734;8.744;2023-04-15T00:49:48;1.20;;;1.10;;
10979;SDS011;5543;51.734;8.744;2023-04-15T00:52:17;2.73;;;1.07;;
10979;SDS011;5543;51.734;8.744;2023-04-15T00:54:45;2.97;;;1.27;;
10979;SDS011;5543;51.734;8.744;2023-04-15T00:57:13;1.00;;;0.90;;
10979;SDS011;5543;51.734;8.744;2023-04-15T00:59:41;1.05;;;1.02;;
10979;SDS011;5543;51.734;8.744;2023-04-15T01:02:10;1.85;;;0.98;;
10979;SDS011;5543;51.734;8.744;2023-04-15T01:04:39;1.80;;;1.13;;
10979;SDS011;5543;51.734;8.744;2023-04-15T01:07:08;1.33;;;1.13;;
10979;SDS011;5543;51.734;8.744;2023-04-15T01:09:36;1.52;;;1.42;;
10979;SDS011;5543;51.734;8.744;2023-04-15T01:12:05;2.40;;;1.40;;
10979;SDS011;5543;51.734;8.744;2023-04-15T01:14:36;1.73;;;0.90;;
10979;SDS011;5543;51.734;8.744;2023-04-15T01:17:04;0.93;;;0.83;;
10979;SDS011;5543;51.734;8.744;2023-04-15T01:19:33;1.33;;;1.00;;
10979;SDS011;5543;51.734;8.744;2023-04-15T01:22:03;1.27;;;1.17;;
10979;SDS011;5543;51.734;8.744;2023-04-15T01:24:32;1.13;;;1.03;;
10979;SDS011;5543;51.734;8.744;2023-04-15T01:27:01;1.20;;;1.03;;
10979;SDS011;5543;51.734;8.744;2023-04-15T01:29:31;1.10;;;1.00;;
10979;SDS011;5543;51.734;8.744;2023-04-15T01:32:02;1.07;;;0.70;;
10979;SDS011;5543;51.734;8.744;2023-04-15T01:34:31;1.67;;;1.23;;
10979;SDS011;5543;51.734;8.744;2023-04-15T01:37:01;3.17;;;1.40;;
10979;SDS011;5543;51.734;8.744;2023-04-15T01:39:29;2.10;;;1.00;;
10979;SDS011;5543;51.734;8.744;2023-04-15T01:41:57;1.80;;;1.07;;
10979;SDS011;5543;51.734;8.744;2023-04-15T01:44:26;1.60;;;1.30;;
10979;SDS011;5543;51.734;8.744;2023-04-15T01:46:54;1.67;;;1.00;;
10979;SDS011;5543;51.734;8.744;2023-04-15T01:49:22;0.50;;;0.50;;
10979;SDS011;5543;51.734;8.744;2023-04-15T01:51:51;2.17;;;1.50;;
10979;SDS011;5543;51.734;8.744;2023-04-15T01:54:19;2.37;;;1.47;;
10979;SDS011;5543;51.734;8.744;2023-04-15T01:56:47;2.27;;;1.40;;
10979;SDS011;5543;51.734;8.744;2023-04-15T01:59:15;1.03;;;0.80;;
10979;SDS011;5543;51.734;8.744;2023-04-15T02:01:45;2.57;;;1.20;;
10979;SDS011;5543;51.734;8.744;2023-04-15T02:04:13;0.97;;;0.93;;
10979;SDS011;5543;51.734;8.744;2023-04-15T02:06:43;1.20;;;1.10;;
10979;SDS011;5543;51.734;8.744;2023-04-15T02:09:11;1.10;;;1.03;;
10979;SDS011;5543;51.734;8.744;2023-04-15T02:11:39;0.90;;;0.73;;
10979;SDS011;5543;51.734;8.744;2023-04-15T02:14:07;2.30;;;1.23;;
10979;SDS011;5543;51.734;8.744;2023-04-15T02:16:35;0.70;;;0.70;;
10979;SDS011;5543;51.734;8.744;2023-04-15T02:19:05;1.17;;;1.07;;
10979;SDS011;5543;51.734;8.744;2023-04-15T02:21:33;1.47;;;1.37;;
10979;SDS011;5543;51.734;8.744;2023-04-15T02:24:01;4.77;;;1.67;;
10979;SDS011;5543;51.734;8.744;2023-04-15T02:26:29;1.47;;;1.17;;
10979;SDS011;5543;51.734;8.744;2023-04-15T02:28:58;1.67;;;1.37;;
10979;SDS011;5543;51.734;8.744;2023-04-15T02:31:26;1.70;;;1.27;;
10979;SDS011;5543;51.734;8.744;2023-04-15T02:33:55;1.40;;;1.10;;
10979;SDS011;5543;51.734;8.744;2023-04-15T02:36:24;1.20;;;1.10;;
10979;SDS011;5543;51.734;8.744;2023-04-15T02:38:52;1.70;;;1.10;;
10979;SDS011;5543;51.734;8.744;2023-04-15T02:41:20;1.30;;;1.20;;
10979;SDS011;5543;51.734;8.744;2023-04-15T02:43:52;1.73;;;1.47;;
10979;SDS011;5543;51.734;8.744;2023-04-15T02:46:20;1.30;;;1.10;;
10979;SDS011;5543;51.734;8.744;2023-04-15T02:48:48;1.53;;;1.30;;
10979;SDS011;5543;51.734;8.744;2023-04-15T02:51:17;2.50;;;1.00;;
10979;SDS011;5543;51.734;8.744;2023-04-15T02:53:47;2.13;;;1.20;;
10979;SDS011;5543;51.734;8.744;2023-04-15T02:56:16;1.67;;;1.23;;
10979;SDS011;5543;51.734;8.744;2023-04-15T02:58:45;1.43;;;1.03;;
10979;SDS011;5543;51.734;8.744;2023-04-15T03:01:15;3.00;;;0.97;;
10979;SDS011;5543;51.734;8.744;2023-04-15T03:03:43;1.30;;;1.17;;
10979;SDS011;5543;51.734;8.744;2023-04-15T03:06:12;2.20;;;1.37;;
10979;SDS011;5543;51.734;8.744;2023-04-15T03:08:40;1.10;;;1.07;;
10979;SDS011;5543;51.734;8.744;2023-04-15T03:11:09;1.30;;;1.20;;
10979;SDS011;5543;51.734;8.744;2023-04-15T03:13:37;1.50;;;1.23;;
10979;SDS011;5543;51.734;8.744;2023-04-15T03:16:07;1.83;;;1.57;;
10979;SDS011;5543;51.734;8.744;2023-04-15T03:18:35;0.83;;;0.80;;
10979;SDS011;5543;51.734;8.744;2023-04-15T03:21:03;1.80;;;1.13;;
10979;SDS011;5543;51.734;8.744;2023-04-15T03:23:31;2.03;;;1.13;;
10979;SDS011;5543;51.734;8.744;2023-04-15T03:26:00;3.43;;;1.43;;
10979;SDS011;5543;51.734;8.744;2023-04-15T03:28:30;1.13;;;1.03;;
10979;SDS011;5543;51.734;8.744;2023-04-15T03:30:58;1.10;;;1.00;;
10979;SDS011;5543;51.734;8.744;2023-04-15T03:33:26;1.37;;;1.20;;
10979;SDS011;5543;51.734;8.744;2023-04-15T03:35:54;1.90;;;1.40;;
10979;SDS011;5543;51.734;8.744;2023-04-15T03:38:23;0.83;;;0.80;;
10979;SDS011;5543;51.734;8.744;2023-04-15T03:40:51;1.73;;;1.63;;
10979;SDS011;5543;51.734;8.744;2023-04-15T03:43:19;1.60;;;1.50;;
10979;SDS011;5543;51.734;8.744;2023-04-15T03:45:48;1.60;;;1.30;;
10979;SDS011;5543;51.734;8.744;2023-04-15T03:48:19;1.60;;;1.20;;
10979;SDS011;5543;51.734;8.744;2023-04-15T03:51:02;0.97;;;0.90;;
10979;SDS011;5543;51.734;8.744;2023-04-15T03:53:30;2.50;;;1.50;;
10979;SDS011;5543;51.734;8.744;2023-04-15T03:55:58;2.03;;;1.47;;
10979;SDS011;5543;51.734;8.744;2023-04-15T03:58:26;4.03;;;1.33;;
10979;SDS011;5543;51.734;8.744;2023-04-15T04:00:56;2.37;;;1.60;;
10979;SDS011;5543;51.734;8.744;2023-04-15T04:03:24;1.60;;;1.47;;
10979;SDS011;5543;51.734;8.744;2023-04-15T04:05:53;0.93;;;0.93;;
10979;SDS011;5543;51.734;8.744;2023-04-15T04:08:21;1.57;;;1.30;;
10979;SDS011;5543;51.734;8.744;2023-04-15T04:10:49;2.57;;;1.20;;
10979;SDS011;5543;51.734;8.744;2023-04-15T04:13:17;0.63;;;0.63;;
10979;SDS011;5543;51.734;8.744;2023-04-15T04:15:45;1.80;;;1.27;;
10979;SDS011;5543;51.734;8.744;2023-04-15T04:18:14;1.23;;;1.13;;
10979;SDS011;5543;51.734;8.744;2023-04-15T04:20:42;0.90;;;0.90;;
10979;SDS011;5543;51.734;8.744;2023-04-15T04:23:10;2.23;;;1.40;;
10979;SDS011;5543;51.734;8.744;2023-04-15T04:25:38;3.03;;;1.23;;
10979;SDS011;5543;51.734;8.744;2023-04-15T04:28:06;1.70;;;1.60;;
10979;SDS011;5543;51.734;8.744;2023-04-15T04:30:35;1.37;;;1.27;;
10979;SDS011;5543;51.734;8.744;2023-04-15T04:33:03;1.30;;;1.10;;
10979;SDS011;5543;51.734;8.744;2023-04-15T04:35:32;1.87;;;1.30;;
10979;SDS011;5543;51.734;8.744;2023-04-15T04:38:03;1.20;;;1.13;;
10979;SDS011;5543;51.734;8.744;2023-04-15T04:40:31;2.37;;;1.37;;
10979;SDS011;5543;51.734;8.744;2023-04-15T04:42:59;1.53;;;1.43;;
10979;SDS011;5543;51.734;8.744;2023-04-15T04:45:27;2.40;;;1.10;;
10979;SDS011;5543;51.734;8.744;2023-04-15T04:47:55;1.20;;;1.10;;
10979;SDS011;5543;51.734;8.744;2023-04-15T04:50:23;1.53;;;1.43;;
10979;SDS011;5543;51.734;8.744;2023-04-15T04:52:53;2.23;;;1.40;;
10979;SDS011;5543;51.734;8.744;2023-04-15T04:55:21;2.20;;;1.00;;
10979;SDS011;5543;51.734;8.744;2023-04-15T04:57:49;1.10;;;1.00;;
10979;SDS011;5543;51.734;8.744;2023-04-15T05:00:17;1.27;;;1.17;;
10979;SDS011;5543;51.734;8.744;2023-04-15T05:02:45;2.10;;;1.40;;
10979;SDS011;5543;51.734;8.744;2023-04-15T05:05:14;1.48;;;1.17;;
10979;SDS011;5543;51.734;8.744;2023-04-15T05:07:42;1.80;;;1.30;;
10979;SDS011;5543;51.734;8.744;2023-04-15T05:10:11;3.30;;;1.63;;
10979;SDS011;5543;51.734;8.744;2023-04-15T05:12:40;1.67;;;1.10;;
10979;SDS011;5543;51.734;8.744;2023-04-15T05:15:08;1.47;;;1.27;;
10979;SDS011;5543;51.734;8.744;2023-04-15T05:17:37;1.80;;;1.50;;
10979;SDS011;5543;51.734;8.744;2023-04-15T05:20:06;1.40;;;1.00;;
10979;SDS011;5543;51.734;8.744;2023-04-15T05:22:34;1.47;;;1.10;;
10979;SDS011;5543;51.734;8.744;2023-04-15T05:25:03;1.63;;;1.42;;
10979;SDS011;5543;51.734;8.744;2023-04-15T05:27:33;1.75;;;1.30;;
10979;SDS011;5543;51.734;8.744;2023-04-15T05:30:02;2.45;;;2.05;;
10979;SDS011;5543;51.734;8.744;2023-04-15T05:32:30;0.63;;;0.63;;
10979;SDS011;5543;51.734;8.744;2023-04-15T05:34:58;1.60;;;1.40;;
10979;SDS011;5543;51.734;8.744;2023-04-15T05:37:27;1.50;;;1.25;;
10979;SDS011;5543;51.734;8.744;2023-04-15T05:39:55;1.52;;;1.40;;
10979;SDS011;5543;51.734;8.744;2023-04-15T05:42:23;4.13;;;1.90;;
10979;SDS011;5543;51.734;8.744;2023-04-15T05:44:52;1.92;;;1.45;;
10979;SDS011;5543;51.734;8.744;2023-04-15T05:47:20;2.75;;;1.33;;
10979;SDS011;5543;51.734;8.744;2023-04-15T05:49:49;1.77;;;1.58;;
10979;SDS011;5543;51.734;8.744;2023-04-15T05:52:17;3.65;;;2.42;;
10979;SDS011;5543;51.734;8.744;2023-04-15T05:54:45;3.10;;;1.20;;
10979;SDS011;5543;51.734;8.744;2023-04-15T05:57:13;2.42;;;1.23;;
10979;SDS011;5543;51.734;8.744;2023-04-15T05:59:41;1.35;;;1.25;;
10979;SDS011;5543;51.734;8.744;2023-04-15T06:02:11;3.03;;;1.60;;
10979;SDS011;5543;51.734;8.744;2023-04-15T06:04:39;1.65;;;1.50;;
10979;SDS011;5543;51.734;8.744;2023-04-15T06:07:08;1.63;;;1.52;;
10979;SDS011;5543;51.734;8.744;2023-04-15T06:09:36;2.17;;;1.23;;
10979;SDS011;5543;51.734;8.744;2023-04-15T06:12:04;2.50;;;1.92;;
10979;SDS011;5543;51.734;8.744;2023-04-15T06:14:37;1.58;;;1.42;;
10979;SDS011;5543;51.734;8.744;2023-04-15T06:17:05;2.20;;;1.70;;
10979;SDS011;5543;51.734;8.744;2023-04-15T06:19:35;3.88;;;1.70;;
10979;SDS011;5543;51.734;8.744;2023-04-15T06:22:04;2.85;;;2.00;;
10979;SDS011;5543;51.734;8.744;2023-04-15T06:24:33;3.13;;;1.65;;
10979;SDS011;5543;51.734;8.744;2023-04-15T06:27:02;3.13;;;2.45;;
10979;SDS011;5543;51.734;8.744;2023-04-15T06:29:30;2.72;;;1.77;;
10979;SDS011;5543;51.734;8.744;2023-04-15T06:31:58;2.38;;;1.40;;
10979;SDS011;5543;51.734;8.744;2023-04-15T06:34:26;2.00;;;1.70;;
10979;SDS011;5543;51.734;8.744;2023-04-15T06:36:56;2.15;;;1.67;;
10979;SDS011;5543;51.734;8.744;2023-04-15T06:39:24;2.97;;;1.75;;
10979;SDS011;5543;51.734;8.744;2023-04-15T06:41:52;2.70;;;1.58;;
10979;SDS011;5543;51.734;8.744;2023-04-15T06:44:21;2.97;;;2.15;;
10979;SDS011;5543;51.734;8.744;2023-04-15T06:46:49;3.25;;;1.95;;
10979;SDS011;5543;51.734;8.744;2023-04-15T06:49:17;3.58;;;2.00;;
10979;SDS011;5543;51.734;8.744;2023-04-15T06:51:46;2.40;;;1.60;;
10979;SDS011;5543;51.734;8.744;2023-04-15T06:54:15;1.55;;;1.33;;
10979;SDS011;5543;51.734;8.744;2023-04-15T06:56:43;1.90;;;1.52;;
10979;SDS011;5543;51.734;8.744;2023-04-15T06:59:11;2.20;;;1.92;;
10979;SDS011;5543;51.734;8.744;2023-04-15T07:01:40;2.88;;;1.77;;
10979;SDS011;5543;51.734;8.744;2023-04-15T07:04:08;1.95;;;1.73;;
10979;SDS011;5543;51.734;8.744;2023-04-15T07:06:36;4.07;;;2.63;;
10979;SDS011;5543;51.734;8.744;2023-04-15T07:09:04;5.13;;;2.20;;
10979;SDS011;5543;51.734;8.744;2023-04-15T07:11:35;3.22;;;1.85;;
10979;SDS011;5543;51.734;8.744;2023-04-15T07:14:03;1.63;;;1.52;;
10979;SDS011;5543;51.734;8.744;2023-04-15T07:16:32;3.00;;;1.80;;
10979;SDS011;5543;51.734;8.744;2023-04-15T07:19:00;4.10;;;1.98;;
10979;SDS011;5543;51.734;8.744;2023-04-15T07:21:28;2.95;;;2.08;;
10979;SDS011;5543;51.734;8.744;2023-04-15T07:23:57;2.47;;;1.80;;
10979;SDS011;5543;51.734;8.744;2023-04-15T07:26:25;2.88;;;1.83;;
10979;SDS011;5543;51.734;8.744;2023-04-15T07:28:55;2.42;;;1.75;;
10979;SDS011;5543;51.734;8.744;2023-04-15T07:31:23;2.78;;;1.98;;
10979;SDS011;5543;51.734;8.744;2023-04-15T07:33:51;3.33;;;1.58;;
10979;SDS011;5543;51.734;8.744;2023-04-15T07:36:19;2.20;;;2.00;;
10979;SDS011;5543;51.734;8.744;2023-04-15T07:38:47;2.30;;;1.95;;
10979;SDS011;5543;51.734;8.744;2023-04-15T07:41:15;2.92;;;2.35;;
10979;SDS011;5543;51.734;8.744;2023-04-15T07:43:43;3.92;;;1.92;;
10979;SDS011;5543;51.734;8.744;2023-04-15T07:46:12;2.25;;;1.75;;
10979;SDS011;5543;51.734;8.744;2023-04-15T07:48:41;3.88;;;3.05;;
10979;SDS011;5543;51.734;8.744;2023-04-15T07:51:09;3.53;;;1.98;;
10979;SDS011;5543;51.734;8.744;2023-04-15T07:53:38;2.22;;;1.45;;
10979;SDS011;5543;51.734;8.744;2023-04-15T07:56:06;1.70;;;1.60;;
10979;SDS011;5543;51.734;8.744;2023-04-15T07:58:34;4.55;;;3.10;;
10979;SDS011;5543;51.734;8.744;2023-04-15T08:01:03;2.63;;;1.95;;
10979;SDS011;5543;51.734;8.744;2023-04-15T08:03:33;2.15;;;1.38;;
10979;SDS011;5543;51.734;8.744;2023-04-15T08:06:01;2.42;;;1.77;;
10979;SDS011;5543;51.734;8.744;2023-04-15T08:08:30;2.80;;;2.08;;
10979;SDS011;5543;51.734;8.744;2023-04-15T08:10:58;2.65;;;2.30;;
10979;SDS011;5543;51.734;8.744;2023-04-15T08:13:26;2.30;;;2.00;;
10979;SDS011;5543;51.734;8.744;2023-04-15T08:18:42;4.05;;;2.85;;
10979;SDS011;5543;51.734;8.744;2023-04-15T08:21:11;3.72;;;1.92;;
10979;SDS011;5543;51.734;8.744;2023-04-15T08:23:39;4.93;;;2.63;;
10979;SDS011;5543;51.734;8.744;2023-04-15T08:26:12;3.58;;;2.30;;
10979;SDS011;5543;51.734;8.744;2023-04-15T08:28:44;5.72;;;2.78;;
10979;SDS011;5543;51.734;8.744;2023-04-15T08:31:12;4.57;;;2.50;;
10979;SDS011;5543;51.734;8.744;2023-04-15T08:33:43;2.92;;;2.30;;
10979;SDS011;5543;51.734;8.744;2023-04-15T08:36:11;4.15;;;2.47;;
10979;SDS011;5543;51.734;8.744;2023-04-15T08:38:40;3.25;;;2.72;;
10979;SDS011;5543;51.734;8.744;2023-04-15T08:41:10;4.18;;;2.42;;
10979;SDS011;5543;51.734;8.744;2023-04-15T08:43:45;3.17;;;2.38;;
10979;SDS011;5543;51.734;8.744;2023-04-15T08:46:19;3.75;;;1.95;;
10979;SDS011;5543;51.734;8.744;2023-04-15T08:48:49;2.25;;;1.67;;
10979;SDS011;5543;51.734;8.744;2023-04-15T08:51:18;2.30;;;1.67;;
10979;SDS011;5543;51.734;8.744;2023-04-15T08:53:50;2.40;;;1.70;;
10979;SDS011;5543;51.734;8.744;2023-04-15T08:56:18;1.65;;;1.40;;
10979;SDS011;5543;51.734;8.744;2023-04-15T08:58:56;2.95;;;1.85;;
10979;SDS011;5543;51.734;8.744;2023-04-15T09:01:25;2.95;;;1.70;;
10979;SDS011;5543;51.734;8.744;2023-04-15T09:03:55;2.83;;;1.52;;
10979;SDS011;5543;51.734;8.744;2023-04-15T09:06:24;2.20;;;1.65;;
10979;SDS011;5543;51.734;8.744;2023-04-15T09:08:58;2.83;;;1.92;;
10979;SDS011;5543;51.734;8.744;2023-04-15T09:11:27;1.92;;;1.70;;
10979;SDS011;5543;51.734;8.744;2023-04-15T09:13:57;2.15;;;1.75;;
10979;SDS011;5543;51.734;8.744;2023-04-15T09:16:25;2.67;;;1.60;;
10979;SDS011;5543;51.734;8.744;2023-04-15T09:18:55;2.30;;;1.58;;
10979;SDS011;5543;51.734;8.744;2023-04-15T09:21:23;2.38;;;1.77;;
10979;SDS011;5543;51.734;8.744;2023-04-15T09:23:53;1.95;;;1.63;;
10979;SDS011;5543;51.734;8.744;2023-04-15T09:26:32;1.67;;;1.30;;
10979;SDS011;5543;51.734;8.744;2023-04-15T09:29:02;3.50;;;1.70;;
10979;SDS011;5543;51.734;8.744;2023-04-15T09:31:32;1.77;;;1.63;;
10979;SDS011;5543;51.734;8.744;2023-04-15T09:34:03;2.33;;;1.80;;
10979;SDS011;5543;51.734;8.744;2023-04-15T09:36:37;3.13;;;1.65;;
10979;SDS011;5543;51.734;8.744;2023-04-15T09:39:19;1.38;;;1.08;;
10979;SDS011;5543;51.734;8.744;2023-04-15T09:42:03;1.40;;;0.77;;
10979;SDS011;5543;51.734;8.744;2023-04-15T09:44:33;4.00;;;1.23;;
10979;SDS011;5543;51.734;8.744;2023-04-15T09:47:01;0.77;;;0.77;;
10979;SDS011;5543;51.734;8.744;2023-04-15T09:49:30;1.15;;;0.80;;
10979;SDS011;5543;51.734;8.744;2023-04-15T09:51:59;1.95;;;1.38;;
10979;SDS011;5543;51.734;8.744;2023-04-15T09:54:32;2.97;;;1.02;;
10979;SDS011;5543;51.734;8.744;2023-04-15T09:57:05;1.10;;;1.00;;
10979;SDS011;5543;51.734;8.744;2023-04-15T09:59:35;1.17;;;1.08;;
10979;SDS011;5543;51.734;8.744;2023-04-15T10:02:04;1.88;;;1.30;;
10979;SDS011;5543;51.734;8.744;2023-04-15T10:04:35;1.17;;;1.08;;
10979;SDS011;5543;51.734;8.744;2023-04-15T10:07:06;1.52;;;1.42;;
10979;SDS011;5543;51.734;8.744;2023-04-15T10:09:35;1.95;;;1.30;;
10979;SDS011;5543;51.734;8.744;2023-04-15T10:12:05;1.15;;;0.90;;
10979;SDS011;5543;51.734;8.744;2023-04-15T10:14:34;2.83;;;1.50;;
10979;SDS011;5543;51.734;8.744;2023-04-15T10:17:04;2.67;;;1.38;;
10979;SDS011;5543;51.734;8.744;2023-04-15T10:19:35;2.42;;;1.30;;
10979;SDS011;5543;51.734;8.744;2023-04-15T10:22:04;1.27;;;0.77;;
10979;SDS011;5543;51.734;8.744;2023-04-15T10:24:33;1.67;;;0.98;;
10979;SDS011;5543;51.734;8.744;2023-04-15T10:27:02;0.98;;;0.88;;
10979;SDS011;5543;51.734;8.744;2023-04-15T10:29:32;1.83;;;1.67;;
10979;SDS011;5543;51.734;8.744;2023-04-15T10:32:01;1.95;;;1.27;;
10979;SDS011;5543;51.734;8.744;2023-04-15T10:34:29;1.30;;;1.15;;
10979;SDS011;5543;51.734;8.744;2023-04-15T10:37:01;2.40;;;1.52;;
10979;SDS011;5543;51.734;8.744;2023-04-15T10:39:39;1.95;;;1.75;;
10979;SDS011;5543;51.734;8.744;2023-04-15T10:42:09;0.63;;;0.63;;
10979;SDS011;5543;51.734;8.744;2023-04-15T10:44:38;0.93;;;0.65;;
10979;SDS011;5543;51.734;8.744;2023-04-15T10:47:11;1.42;;;1.08;;
10979;SDS011;5543;51.734;8.744;2023-04-15T10:49:47;1.20;;;1.10;;
10979;SDS011;5543;51.734;8.744;2023-04-15T10:52:21;1.23;;;1.00;;
10979;SDS011;5543;51.734;8.744;2023-04-15T10:55:00;1.42;;;1.33;;
10979;SDS011;5543;51.734;8.744;2023-04-15T10:57:33;3.17;;;1.67;;
10979;SDS011;5543;51.734;8.744;2023-04-15T11:00:08;1.13;;;0.73;;
10979;SDS011;5543;51.734;8.744;2023-04-15T11:02:42;2.25;;;1.33;;
10979;SDS011;5543;51.734;8.744;2023-04-15T11:05:13;1.17;;;1.08;;
10979;SDS011;5543;51.734;8.744;2023-04-15T11:07:50;1.77;;;1.08;;
10979;SDS011;5543;51.734;8.744;2023-04-15T11:13:22;1.02;;;0.90;;
10979;SDS011;5543;51.734;8.744;2023-04-15T11:15:58;2.08;;;1.05;;
10979;SDS011;5543;51.734;8.744;2023-04-15T11:18:28;0.50;;;0.50;;
10979;SDS011;5543;51.734;8.744;2023-04-15T11:20:59;1.55;;;1.13;;
10979;SDS011;5543;51.734;8.744;2023-04-15T11:23:33;1.50;;;1.27;;
10979;SDS011;5543;51.734;8.744;2023-04-15T11:26:04;3.60;;;0.77;;
10979;SDS011;5543;51.734;8.744;2023-04-15T11:28:35;1.08;;;0.95;;
10979;SDS011;5543;51.734;8.744;2023-04-15T11:31:06;1.13;;;0.80;;
10979;SDS011;5543;51.734;8.744;2023-04-15T11:33:36;1.38;;;1.10;;
10979;SDS011;5543;51.734;8.744;2023-04-15T11:36:05;1.63;;;0.60;;
10979;SDS011;5543;51.734;8.744;2023-04-15T11:38:35;1.50;;;1.17;;
10979;SDS011;5543;51.734;8.744;2023-04-15T11:41:04;0.98;;;0.80;;
10979;SDS011;5543;51.734;8.744;2023-04-15T11:43:32;1.77;;;1.55;;
10979;SDS011;5543;51.734;8.744;2023-04-15T11:46:01;1.08;;;0.98;;
10979;SDS011;5543;51.734;8.744;2023-04-15T11:48:31;1.50;;;1.00;;
10979;SDS011;5543;51.734;8.744;2023-04-15T11:51:00;2.05;;;1.05;;
10979;SDS011;5543;51.734;8.744;2023-04-15T11:53:37;3.30;;;1.27;;
10979;SDS011;5543;51.734;8.744;2023-04-15T11:56:07;2.58;;;1.85;;
10979;SDS011;5543;51.734;8.744;2023-04-15T11:58:37;0.65;;;0.65;;
10979;SDS011;5543;51.734;8.744;2023-04-15T12:01:05;0.77;;;0.70;;
10979;SDS011;5543;51.734;8.744;2023-04-15T12:03:37;0.82;;;0.43;;
10979;SDS011;5543;51.734;8.744;2023-04-15T12:06:14;1.30;;;0.90;;
10979;SDS011;5543;51.734;8.744;2023-04-15T12:11:36;1.25;;;1.13;;
10979;SDS011;5543;51.734;8.744;2023-04-15T12:14:06;0.95;;;0.90;;
10979;SDS011;5543;51.734;8.744;2023-04-15T12:16:40;0.75;;;0.50;;
10979;SDS011;5543;51.734;8.744;2023-04-15T12:19:17;1.25;;;0.80;;
10979;SDS011;5543;51.734;8.744;2023-04-15T12:21:48;0.65;;;0.65;;
10979;SDS011;5543;51.734;8.744;2023-04-15T12:24:20;1.17;;;1.05;;
10979;SDS011;5543;51.734;8.744;2023-04-15T12:26:49;1.80;;;1.33;;
10979;SDS011;5543;51.734;8.744;2023-04-15T12:29:19;1.00;;;0.90;;
10979;SDS011;5543;51.734;8.744;2023-04-15T12:31:52;0.98;;;0.95;;
10979;SDS011;5543;51.734;8.744;2023-04-15T12:34:27;2.00;;;1.15;;
10979;SDS011;5543;51.734;8.744;2023-04-15T12:36:57;1.65;;;1.02;;
10979;SDS011;5543;51.734;8.744;2023-04-15T12:39:28;2.33;;;1.13;;
10979;SDS011;5543;51.734;8.744;2023-04-15T12:41:58;3.05;;;0.98;;
10979;SDS011;5543;51.734;8.744;2023-04-15T12:44:27;1.08;;;0.88;;
10979;SDS011;5543;51.734;8.744;2023-04-15T12:46:55;1.10;;;0.63;;
10979;SDS011;5543;51.734;8.744;2023-04-15T12:49:23;1.20;;;0.73;;
10979;SDS011;5543;51.734;8.744;2023-04-15T12:51:53;0.63;;;0.57;;
10979;SDS011;5543;51.734;8.744;2023-04-15T12:54:25;0.70;;;0.70;;
10979;SDS011;5543;51.734;8.744;2023-04-15T12:56:55;2.83;;;0.98;;
10979;SDS011;5543;51.734;8.744;2023-04-15T12:59:24;0.88;;;0.73;;
10979;SDS011;5543;51.734;8.744;2023-04-15T13:01:52;1.30;;;1.10;;
10979;SDS011;5543;51.734;8.744;2023-04-15T13:04:21;0.68;;;0.68;;
10979;SDS011;5543;51.734;8.744;2023-04-15T13:06:49;1.35;;;1.05;;
10979;SDS011;5543;51.734;8.744;2023-04-15T13:09:17;2.33;;;1.13;;
10979;SDS011;5543;51.734;8.744;2023-04-15T13:11:47;0.93;;;0.90;;
10979;SDS011;5543;51.734;8.744;2023-04-15T13:14:16;1.10;;;1.08;;
10979;SDS011;5543;51.734;8.744;2023-04-15T13:16:44;1.42;;;0.90;;
10979;SDS011;5543;51.734;8.744;2023-04-15T13:19:12;1.17;;;1.08;;
10979;SDS011;5543;51.734;8.744;2023-04-15T13:21:41;0.60;;;0.60;;
10979;SDS011;5543;51.734;8.744;2023-04-15T13:24:09;0.77;;;0.70;;
10979;SDS011;5543;51.734;8.744;2023-04-15T13:26:37;0.80;;;0.80;;
10979;SDS011;5543;51.734;8.744;2023-04-15T13:29:07;0.57;;;0.57;;
10979;SDS011;5543;51.734;8.744;2023-04-15T13:31:35;1.17;;;0.93;;
10979;SDS011;5543;51.734;8.744;2023-04-15T13:34:03;1.02;;;0.88;;
10979;SDS011;5543;51.734;8.744;2023-04-15T13:36:31;0.73;;;0.73;;
10979;SDS011;5543;51.734;8.744;2023-04-15T13:38:59;1.30;;;1.13;;
10979;SDS011;5543;51.734;8.744;2023-04-15T13:41:28;1.15;;;1.08;;
10979;SDS011;5543;51.734;8.744;2023-04-15T13:43:57;1.70;;;0.70;;
10979;SDS011;5543;51.734;8.744;2023-04-15T13:46:27;0.63;;;0.63;;
10979;SDS011;5543;51.734;8.744;2023-04-15T13:48:56;0.80;;;0.80;;
10979;SDS011;5543;51.734;8.744;2023-04-15T13:51:27;1.33;;;0.95;;
10979;SDS011;5543;51.734;8.744;2023-04-15T13:53:56;1.00;;;0.90;;
10979;SDS011;5543;51.734;8.744;2023-04-15T13:56:24;1.08;;;0.95;;
10979;SDS011;5543;51.734;8.744;2023-04-15T13:58:52;0.80;;;0.80;;
10979;SDS011;5543;51.734;8.744;2023-04-15T14:01:24;1.05;;;0.95;;
10979;SDS011;5543;51.734;8.744;2023-04-15T14:03:54;1.13;;;0.77;;
10979;SDS011;5543;51.734;8.744;2023-04-15T14:06:22;0.70;;;0.70;;
10979;SDS011;5543;51.734;8.744;2023-04-15T14:08:51;1.75;;;1.23;;
10979;SDS011;5543;51.734;8.744;2023-04-15T14:11:19;1.27;;;0.98;;
10979;SDS011;5543;51.734;8.744;2023-04-15T14:13:47;1.27;;;0.75;;
10979;SDS011;5543;51.734;8.744;2023-04-15T14:16:16;0.68;;;0.52;;
10979;SDS011;5543;51.734;8.744;2023-04-15T14:18:44;0.77;;;0.77;;
10979;SDS011;5543;51.734;8.744;2023-04-15T14:21:13;2.42;;;0.90;;
10979;SDS011;5543;51.734;8.744;2023-04-15T14:23:42;0.70;;;0.70;;
10979;SDS011;5543;51.734;8.744;2023-04-15T14:26:10;0.85;;;0.85;;
10979;SDS011;5543;51.734;8.744;2023-04-15T14:28:39;0.57;;;0.57;;
10979;SDS011;5543;51.734;8.744;2023-04-15T14:31:08;0.50;;;0.50;;
10979;SDS011;5543;51.734;8.744;2023-04-15T14:33:36;0.90;;;0.70;;
10979;SDS011;5543;51.734;8.744;2023-04-15T14:36:05;0.95;;;0.88;;
10979;SDS011;5543;51.734;8.744;2023-04-15T14:38:35;0.98;;;0.80;;
10979;SDS011;5543;51.734;8.744;2023-04-15T14:41:05;1.40;;;1.30;;
10979;SDS011;5543;51.734;8.744;2023-04-15T14:43:33;1.40;;;1.30;;
10979;SDS011;5543;51.734;8.744;2023-04-15T14:46:02;1.10;;;1.00;;
10979;SDS011;5543;51.734;8.744;2023-04-15T14:48:30;0.88;;;0.88;;
10979;SDS011;5543;51.734;8.744;2023-04-15T14:50:58;1.52;;;1.30;;
10979;SDS011;5543;51.734;8.744;2023-04-15T14:53:27;1.58;;;0.90;;
10979;SDS011;5543;51.734;8.744;2023-04-15T14:55:56;1.45;;;1.08;;
10979;SDS011;5543;51.734;8.744;2023-04-15T14:58:24;1.35;;;1.13;;
10979;SDS011;5543;51.734;8.744;2023-04-15T15:00:53;1.67;;;0.98;;
10979;SDS011;5543;51.734;8.744;2023-04-15T15:03:22;1.17;;;1.08;;
10979;SDS011;5543;51.734;8.744;2023-04-15T15:05:50;1.20;;;1.10;;
10979;SDS011;5543;51.734;8.744;2023-04-15T15:08:18;0.98;;;0.80;;
10979;SDS011;5543;51.734;8.744;2023-04-15T15:10:47;2.55;;;1.63;;
10979;SDS011;5543;51.734;8.744;2023-04-15T15:13:17;1.38;;;1.17;;
10979;SDS011;5543;51.734;8.744;2023-04-15T15:15:46;1.77;;;1.35;;
10979;SDS011;5543;51.734;8.744;2023-04-15T15:18:15;1.33;;;1.10;;
10979;SDS011;5543;51.734;8.744;2023-04-15T15:20:45;1.58;;;0.95;;